Time;durP1;ratioP1;P1;durP2;ratioP2;P2;SDS_P1;SDS_P2;PMS_P1;PMS_P2;Temp;Humidity;BMP_temperature;BMP_pressure;BME280_temperature;BME280_humidity;BME280_pressure;Samples;Min_cycle;Max_cycle;Signal;HPM_P1;HPM_P2
2022/06/23 00:02:07;;;;;;;34.42;17.48;;;;;20.40;96102.00;;;;8398095;28;20243;-75
2022/06/23 00:06:36;;;;;;;32.67;18.33;;;;;20.40;96109.00;;;;8413290;28;20215;-76
2022/06/23 00:10:43;;;;;;;30.70;18.90;;;;;20.50;96114.00;;;;8404423;28;20640;-76
2022/06/23 00:14:47;;;;;;;34.80;19.35;;;;;20.40;96120.00;;;;8412529;28;20235;-77
2022/06/23 00:18:50;;;;;;;39.90;18.63;;;;;20.40;96118.00;;;;8391565;28;20271;-75
2022/06/23 00:23:03;;;;;;;38.47;20.23;;;;;20.40;96111.00;;;;8399886;28;20582;-76
2022/06/23 00:27:06;;;;;;;33.95;18.10;;;;;20.50;96110.00;;;;8402421;28;20206;-75
2022/06/23 00:31:27;;;;;;;40.65;17.67;;;;;20.50;96104.00;;;;8390774;28;20591;-75
2022/06/23 00:35:30;;;;;;;29.45;17.45;;;;;20.50;96107.00;;;;8402548;28;20227;-75
2022/06/23 00:39:37;;;;;;;42.42;21.15;;;;;20.50;96103.00;;;;8402234;28;20238;-76
2022/06/23 00:43:45;;;;;;;33.33;17.45;;;;;20.60;96091.00;;;;8404251;28;20245;-73
2022/06/23 00:47:57;;;;;;;35.42;18.75;;;;;20.60;96094.00;;;;8396039;28;20683;-75
2022/06/23 00:52:11;;;;;;;34.58;19.05;;;;;20.60;96096.00;;;;8408289;28;20231;-75
2022/06/23 00:56:40;;;;;;;41.20;20.73;;;;;20.60;96092.00;;;;8407238;28;20220;-74
2022/06/23 01:00:44;;;;;;;38.03;21.60;;;;;20.60;96096.00;;;;8401202;28;20223;-74
2022/06/23 01:04:53;;;;;;;57.38;23.20;;;;;20.40;96096.00;;;;8407810;28;20382;-74
2022/06/23 01:09:00;;;;;;;50.92;23.55;;;;;20.30;96097.00;;;;8393737;28;20200;-74
2022/06/23 01:13:15;;;;;;;49.08;24.17;;;;;20.30;96108.00;;;;8399222;28;20322;-74
2022/06/23 01:17:23;;;;;;;34.03;20.45;;;;;20.30;96111.00;;;;8402684;28;20651;-74
2022/06/23 01:21:31;;;;;;;44.47;22.25;;;;;20.30;96107.00;;;;8401684;28;20207;-74
2022/06/23 01:25:48;;;;;;;61.58;25.30;;;;;20.20;96105.00;;;;8402134;28;20199;-73
2022/06/23 01:29:58;;;;;;;42.33;23.55;;;;;20.20;96101.00;;;;8399735;28;20206;-74
2022/06/23 01:34:09;;;;;;;44.65;22.67;;;;;20.20;96099.00;;;;8387852;28;20295;-75
2022/06/23 01:38:18;;;;;;;35.90;22.08;;;;;20.20;96091.00;;;;8395016;28;20195;-75
2022/06/23 01:42:28;;;;;;;46.58;24.52;;;;;20.20;96107.00;;;;8416596;28;20222;-72
2022/06/23 01:46:37;;;;;;;43.17;24.38;;;;;20.10;96112.00;;;;8398400;28;20734;-70
2022/06/23 01:50:43;;;;;;;47.47;25.90;;;;;20.10;96100.00;;;;8409102;28;20215;-69
2022/06/23 01:54:52;;;;;;;41.28;22.05;;;;;20.00;96094.00;;;;8400703;28;20219;-70
2022/06/23 01:59:07;;;;;;;40.17;23.33;;;;;19.90;96098.00;;;;8394159;28;20200;-69
2022/06/23 02:03:17;;;;;;;40.00;23.92;;;;;19.90;96100.00;;;;8400345;28;20767;-70
2022/06/23 02:07:25;;;;;;;33.67;21.05;;;;;19.80;96099.00;;;;8401027;28;20274;-71
2022/06/23 02:11:33;;;;;;;40.67;22.13;;;;;19.80;96099.00;;;;8397087;28;20705;-72
2022/06/23 02:15:41;;;;;;;40.95;23.35;;;;;19.80;96104.00;;;;8402511;28;20219;-72
2022/06/23 02:19:49;;;;;;;32.00;20.85;;;;;19.80;96102.00;;;;8405921;28;20295;-71
2022/06/23 02:23:59;;;;;;;38.83;22.75;;;;;19.70;96108.00;;;;8404027;28;20191;-72
2022/06/23 02:28:11;;;;;;;36.90;21.42;;;;;19.70;96096.00;;;;8396181;28;20200;-71
2022/06/23 02:32:17;;;;;;;41.65;22.42;;;;;19.60;96101.00;;;;8402514;28;20288;-72
2022/06/23 02:36:38;;;;;;;36.72;22.88;;;;;19.60;96099.00;;;;8407834;28;20712;-72
2022/06/23 02:40:43;;;;;;;36.25;22.35;;;;;19.50;96095.00;;;;8403033;28;20275;-73
2022/06/23 02:45:13;;;;;;;32.10;21.63;;;;;19.50;96101.00;;;;8402091;28;20283;-72
2022/06/23 02:49:43;;;;;;;35.67;21.52;;;;;19.40;96096.00;;;;8413019;28;20200;-72
2022/06/23 02:54:12;;;;;;;39.17;22.30;;;;;19.40;96094.00;;;;8412000;28;20266;-72
2022/06/23 02:58:20;;;;;;;35.60;21.90;;;;;19.40;96103.00;;;;8406221;28;20211;-73
2022/06/23 03:02:31;;;;;;;46.95;21.02;;;;;19.30;96103.00;;;;8428886;22;20242;-74
2022/06/23 03:06:41;;;;;;;40.42;20.13;;;;;19.30;96104.00;;;;8387293;28;20279;-73
2022/06/23 03:10:53;;;;;;;41.65;22.02;;;;;19.30;96107.00;;;;8393327;28;20311;-74
2022/06/23 03:15:01;;;;;;;31.52;19.15;;;;;19.40;96107.00;;;;8389142;28;20311;-74
2022/06/23 03:19:09;;;;;;;37.00;20.73;;;;;19.50;96113.00;;;;8392893;28;20288;-75
2022/06/23 03:23:21;;;;;;;53.47;34.28;;;;;19.50;96121.00;;;;8391553;28;20200;-75
2022/06/23 03:27:31;;;;;;;40.90;21.67;;;;;19.60;96126.00;;;;8386893;28;20693;-75
2022/06/23 03:31:41;;;;;;;39.90;22.17;;;;;19.60;96127.00;;;;8389554;28;20236;-76
2022/06/23 03:35:49;;;;;;;47.10;23.63;;;;;19.70;96123.00;;;;8389646;28;20228;-74
2022/06/23 03:44:27;;;;;;;35.00;20.45;;;;;19.90;96122.00;;;;8382204;28;20204;-75
2022/06/23 03:48:37;;;;;;;30.70;19.60;;;;;20.00;96135.00;;;;8383682;28;20205;-74
2022/06/23 03:52:46;;;;;;;34.78;19.05;;;;;20.00;96139.00;;;;8387347;28;22365;-73
2022/06/23 03:56:53;;;;;;;39.25;20.25;;;;;20.00;96143.00;;;;8380898;28;20324;-72
2022/06/23 04:01:03;;;;;;;39.58;21.60;;;;;20.00;96149.00;;;;8388568;28;21066;-73
2022/06/23 04:05:16;;;;;;;41.03;20.60;;;;;20.00;96161.00;;;;8385776;28;20243;-72
2022/06/23 04:09:22;;;;;;;40.65;22.30;;;;;19.90;96164.00;;;;8385976;28;20202;-72
2022/06/23 04:13:30;;;;;;;46.63;23.65;;;;;20.00;96173.00;;;;8384368;28;20200;-72
2022/06/23 04:17:41;;;;;;;37.58;22.60;;;;;20.10;96176.00;;;;8386383;28;20307;-73
2022/06/23 04:21:49;;;;;;;42.05;22.52;;;;;20.30;96174.00;;;;8397078;28;20222;-73
2022/06/23 04:25:58;;;;;;;33.97;20.88;;;;;20.40;96182.00;;;;8383278;28;20315;-73
2022/06/23 04:30:02;;;;;;;41.05;20.83;;;;;20.50;96186.00;;;;8376415;28;20679;-74
2022/06/23 04:34:19;;;;;;;34.13;21.45;;;;;20.60;96195.00;;;;8386415;28;20208;-73
2022/06/23 04:38:29;;;;;;;33.95;19.65;;;;;20.70;96196.00;;;;8395254;28;20228;-73
2022/06/23 04:42:34;;;;;;;31.27;19.17;;;;;20.70;96208.00;;;;8389246;28;20671;-75
2022/06/23 04:46:40;;;;;;;31.90;18.42;;;;;20.70;96209.00;;;;8385468;28;20275;-74
2022/06/23 04:50:50;;;;;;;27.85;17.77;;;;;20.80;96213.00;;;;8383849;28;20199;-75
2022/06/23 04:54:58;;;;;;;35.95;18.58;;;;;20.90;96218.00;;;;8387050;28;20246;-74
2022/06/23 04:59:08;;;;;;;27.38;17.42;;;;;21.00;96217.00;;;;8389701;28;20272;-74
2022/06/23 05:03:18;;;;;;;23.30;16.05;;;;;21.10;96217.00;;;;8389694;28;20258;-73
2022/06/23 05:07:29;;;;;;;26.77;15.43;;;;;21.20;96218.00;;;;8386683;28;20203;-74
2022/06/23 05:11:37;;;;;;;26.27;15.52;;;;;21.20;96217.00;;;;8393278;28;20297;-73
2022/06/23 05:15:46;;;;;;;21.13;15.35;;;;;21.30;96215.00;;;;8382893;28;20314;-72
2022/06/23 05:19:54;;;;;;;20.33;13.18;;;;;21.30;96212.00;;;;8393528;28;20676;-71
2022/06/23 05:24:03;;;;;;;21.10;13.80;;;;;21.40;96210.00;;;;8387638;28;20671;-72
2022/06/23 05:28:16;;;;;;;22.27;13.80;;;;;21.60;96219.00;;;;8385162;28;20234;-73
2022/06/23 05:32:24;;;;;;;26.83;14.65;;;;;21.70;96229.00;;;;8393104;28;20287;-71
2022/06/23 05:36:34;;;;;;;24.13;15.07;;;;;21.80;96229.00;;;;8389270;28;20227;-72
2022/06/23 05:40:48;;;;;;;22.70;15.15;;;;;21.90;96235.00;;;;8394826;28;20649;-72
2022/06/23 05:44:56;;;;;;;21.88;15.48;;;;;22.10;96236.00;;;;8381438;28;20283;-72
2022/06/23 05:49:02;;;;;;;19.95;13.60;;;;;22.40;96236.00;;;;8390485;28;20200;-73
2022/06/23 05:53:11;;;;;;;17.08;13.32;;;;;22.60;96243.00;;;;8392622;28;20204;-73
2022/06/23 05:57:22;;;;;;;20.00;12.40;;;;;22.80;96241.00;;;;8389218;28;20224;-72
2022/06/23 06:01:32;;;;;;;16.85;12.23;;;;;23.00;96244.00;;;;8393661;28;20283;-71
2022/06/23 06:05:37;;;;;;;18.30;12.10;;;;;23.10;96252.00;;;;8392133;28;20326;-73
2022/06/23 06:09:40;;;;;;;19.90;13.40;;;;;23.30;96258.00;;;;8392337;28;20463;-72
2022/06/23 06:13:45;;;;;;;22.80;13.65;;;;;23.40;96259.00;;;;8388942;28;20290;-73
2022/06/23 06:17:50;;;;;;;13.68;12.00;;;;;23.70;96252.00;;;;8403162;28;20319;-72
2022/06/23 06:21:57;;;;;;;14.45;11.27;;;;;24.30;96251.00;;;;8384751;28;20271;-72
2022/06/23 06:26:01;;;;;;;16.27;10.13;;;;;24.90;96249.00;;;;8398213;28;20200;-72
2022/06/23 06:30:13;;;;;;;13.88;8.88;;;;;25.20;96247.00;;;;8396309;28;20196;-73
2022/06/23 06:34:24;;;;;;;13.85;9.75;;;;;25.60;96251.00;;;;8396106;28;20231;-73
2022/06/23 06:38:30;;;;;;;11.85;7.63;;;;;26.50;96246.00;;;;8398864;28;21137;-73
2022/06/23 06:42:36;;;;;;;10.85;6.97;;;;;27.10;96243.00;;;;8396596;28;20195;-73
2022/06/23 06:46:41;;;;;;;10.75;6.90;;;;;27.20;96242.00;;;;8388094;28;20728;-73
2022/06/23 06:50:47;;;;;;;7.97;5.80;;;;;27.40;96240.00;;;;8389958;28;20221;-74
2022/06/23 06:54:57;;;;;;;13.52;7.25;;;;;27.60;96240.00;;;;8388964;28;20627;-74
2022/06/23 06:59:09;;;;;;;12.45;6.68;;;;;27.50;96237.00;;;;8384435;28;20204;-75
2022/06/23 07:03:17;;;;;;;11.77;6.97;;;;;27.30;96241.00;;;;8386310;28;20690;-73
2022/06/23 07:07:25;;;;;;;11.07;6.97;;;;;27.50;96246.00;;;;8390465;28;20248;-74
2022/06/23 07:11:34;;;;;;;11.00;6.68;;;;;28.70;96246.00;;;;8382284;28;20275;-74
2022/06/23 07:15:42;;;;;;;7.78;5.95;;;;;29.40;96244.00;;;;8387536;28;20281;-76
2022/06/23 07:19:53;;;;;;;8.18;4.78;;;;;30.00;96249.00;;;;8385186;28;20200;-73
2022/06/23 07:24:03;;;;;;;8.27;4.72;;;;;30.50;96264.00;;;;8386047;28;20736;-75
2022/06/23 07:28:14;;;;;;;7.47;5.60;;;;;30.20;96253.00;;;;8387651;28;20192;-76
2022/06/23 07:32:27;;;;;;;6.93;5.30;;;;;30.00;96258.00;;;;8389924;28;20279;-75
2022/06/23 07:36:35;;;;;;;7.88;5.15;;;;;29.80;96258.00;;;;8381122;28;20224;-74
2022/06/23 07:40:43;;;;;;;6.35;4.82;;;;;29.70;96254.00;;;;8385712;28;20686;-70
2022/06/23 07:45:00;;;;;;;7.72;3.90;;;;;29.60;96250.00;;;;8385622;28;20200;-71
2022/06/23 07:49:03;;;;;;;6.20;4.47;;;;;30.50;96256.00;;;;8383901;28;20279;-71
2022/06/23 07:53:15;;;;;;;7.68;4.53;;;;;31.40;96252.00;;;;8382469;28;20648;-72
2022/06/23 07:57:18;;;;;;;8.55;3.40;;;;;32.00;96252.00;;;;8384694;28;20223;-71
2022/06/23 08:01:31;;;;;;;7.68;3.17;;;;;32.60;96248.00;;;;8378786;28;20200;-73
2022/06/23 08:05:41;;;;;;;7.88;3.42;;;;;32.90;96255.00;;;;8377675;28;20263;-72
2022/06/23 08:09:49;;;;;;;5.70;4.30;;;;;32.70;96258.00;;;;8386146;28;20233;-70
2022/06/23 08:13:58;;;;;;;8.98;5.45;;;;;33.10;96256.00;;;;8382766;28;20530;-71
2022/06/23 08:18:07;;;;;;;9.73;4.97;;;;;32.70;96251.00;;;;8388044;28;20242;-73
2022/06/23 08:22:14;;;;;;;7.13;4.50;;;;;33.00;96254.00;;;;8383703;28;20665;-72
2022/06/23 08:26:21;;;;;;;7.40;4.30;;;;;33.70;96255.00;;;;8385855;28;20200;-72
2022/06/23 08:30:26;;;;;;;4.97;4.00;;;;;34.20;96249.00;;;;8383748;28;20976;-72
2022/06/23 08:34:31;;;;;;;7.50;4.43;;;;;34.90;96249.00;;;;8383731;28;20303;-71
2022/06/23 08:38:42;;;;;;;5.32;3.17;;;;;34.80;96251.00;;;;8384325;28;20220;-71
2022/06/23 08:42:58;;;;;;;5.55;3.60;;;;;34.70;96245.00;;;;8385341;28;20284;-73
2022/06/23 08:47:07;;;;;;;7.93;4.38;;;;;35.20;96239.00;;;;8383938;28;21514;-72
2022/06/23 08:51:19;;;;;;;6.30;3.22;;;;;36.10;96244.00;;;;8381921;28;20250;-74
2022/06/23 08:55:27;;;;;;;6.45;3.17;;;;;36.70;96242.00;;;;8382017;28;20287;-72
2022/06/23 08:59:57;;;;;;;8.32;3.60;;;;;37.20;96240.00;;;;8384873;28;20264;-73
2022/06/23 09:04:08;;;;;;;5.78;3.70;;;;;36.10;96239.00;;;;8382223;28;20632;-71
2022/06/23 09:08:18;;;;;;;9.20;4.20;;;;;35.80;96240.00;;;;8382105;28;20212;-73
2022/06/23 09:12:47;;;;;;;7.53;4.00;;;;;34.80;96246.00;;;;8376802;28;20199;-73
2022/06/23 09:17:13;;;;;;;10.98;4.43;;;;;34.60;96234.00;;;;8383558;28;20232;-72
2022/06/23 09:21:51;;;;;;;8.57;4.05;;;;;35.60;96240.00;;;;8384517;28;20196;-74
2022/06/23 09:26:01;;;;;;;6.43;3.30;;;;;36.70;96242.00;;;;8337291;28;20922;-73
2022/06/23 09:30:09;;;;;;;5.00;3.03;;;;;37.30;96238.00;;;;8382475;28;20283;-74
2022/06/23 09:34:21;;;;;;;10.52;4.38;;;;;37.70;96236.00;;;;8383546;28;20287;-73
2022/06/23 09:38:53;;;;;;;5.70;3.70;;;;;37.10;96241.00;;;;8382751;28;20224;-73
2022/06/23 09:43:25;;;;;;;5.78;3.63;;;;;35.80;96239.00;;;;8382236;28;20287;-74
2022/06/23 09:47:52;;;;;;;5.22;3.72;;;;;35.90;96244.00;;;;8355472;28;20802;-73
2022/06/23 09:52:17;;;;;;;4.60;3.80;;;;;37.10;96238.00;;;;8385898;28;20196;-75
2022/06/23 09:56:51;;;;;;;3.90;3.42;;;;;38.40;96232.00;;;;8390197;28;20677;-76
2022/06/23 10:01:10;;;;;;;10.40;3.90;;;;;39.40;96236.00;;;;8382195;28;20188;-74
2022/06/23 10:05:37;;;;;;;6.57;3.05;;;;;39.40;96229.00;;;;8389154;28;20236;-74
2022/06/23 10:09:52;;;;;;;7.90;3.88;;;;;38.80;96227.00;;;;8384936;28;20204;-74
2022/06/23 10:14:19;;;;;;;5.57;3.47;;;;;39.20;96219.00;;;;8391461;28;20207;-76
2022/06/23 10:18:41;;;;;;;6.57;3.20;;;;;39.60;96214.00;;;;8389441;28;20255;-74
2022/06/23 10:22:56;;;;;;;5.18;3.42;;;;;38.80;96210.00;;;;8392044;28;20290;-75
2022/06/23 10:27:20;;;;;;;5.50;2.58;;;;;38.20;96216.00;;;;8389611;28;20917;-75
2022/06/23 10:31:40;;;;;;;4.43;2.50;;;;;38.00;96210.00;;;;8389462;28;20826;-74
2022/06/23 10:36:16;;;;;;;6.32;3.47;;;;;37.40;96212.00;;;;8381463;28;20389;-74
2022/06/23 10:40:42;;;;;;;3.05;2.72;;;;;36.20;96214.00;;;;8385222;28;20254;-76
2022/06/23 10:45:09;;;;;;;10.23;3.47;;;;;36.80;96212.00;;;;8384902;28;20254;-75
2022/06/23 10:49:27;;;;;;;7.38;3.30;;;;;36.70;96215.00;;;;8387645;28;20279;-76
2022/06/23 10:54:17;;;;;;;6.07;2.97;;;;;36.20;96207.00;;;;8396070;28;20279;-76
2022/06/23 10:58:47;;;;;;;6.65;3.05;;;;;34.90;96205.00;;;;8384225;28;20961;-75
2022/06/23 11:03:19;;;;;;;5.43;3.40;;;;;34.20;96201.00;;;;8381031;28;20236;-74
2022/06/23 11:07:39;;;;;;;11.55;3.33;;;;;33.60;96198.00;;;;8381540;28;20721;-75
2022/06/23 11:11:53;;;;;;;4.93;3.00;;;;;33.30;96192.00;;;;8380275;28;20835;-76
2022/06/23 11:16:06;;;;;;;8.27;4.63;;;;;33.10;96189.00;;;;8382954;28;20288;-77
2022/06/23 11:20:22;;;;;;;8.00;4.28;;;;;33.00;96181.00;;;;8383580;28;20330;-78
2022/06/23 11:24:35;;;;;;;5.53;3.50;;;;;33.20;96182.00;;;;8386724;28;20287;-78
2022/06/23 11:28:49;;;;;;;7.00;2.92;;;;;33.20;96176.00;;;;8375260;28;20200;-77
2022/06/23 11:33:16;;;;;;;6.90;3.28;;;;;33.70;96172.00;;;;8379573;28;20192;-77
2022/06/23 11:37:33;;;;;;;4.22;2.90;;;;;35.00;96159.00;;;;8383911;28;20224;-77
2022/06/23 11:41:53;;;;;;;5.78;3.17;;;;;36.90;96160.00;;;;8373281;28;20200;-77
2022/06/23 11:46:06;;;;;;;4.85;2.90;;;;;38.60;96141.00;;;;8379631;28;20395;-80
2022/06/23 11:50:14;;;;;;;6.28;2.70;;;;;39.30;96150.00;;;;8388537;28;20231;-78
2022/06/23 11:54:34;;;;;;;8.27;2.50;;;;;39.70;96153.00;;;;8377887;28;20928;-82
2022/06/23 11:59:00;;;;;;;5.97;2.60;;;;;40.00;96151.00;;;;8377966;28;20316;-80
2022/06/23 12:03:17;;;;;;;8.38;2.88;;;;;39.60;96157.00;;;;8382674;28;20319;-78
2022/06/23 12:08:00;;;;;;;4.35;2.22;;;;;39.30;96153.00;;;;8381290;28;20210;-78
2022/06/23 12:12:06;;;;;;;4.30;2.45;;;;;39.70;96140.00;;;;8379642;28;20328;-77
2022/06/23 12:16:09;;;;;;;3.88;2.33;;;;;39.90;96141.00;;;;8384678;28;20583;-78
2022/06/23 12:20:20;;;;;;;4.88;2.45;;;;;40.20;96137.00;;;;8382232;28;20259;-78
2022/06/23 12:24:39;;;;;;;4.78;2.20;;;;;40.00;96132.00;;;;8384743;28;20219;-78
2022/06/23 12:28:49;;;;;;;3.45;2.25;;;;;40.10;96125.00;;;;8390123;28;20199;-76
2022/06/23 12:33:00;;;;;;;6.82;2.30;;;;;40.30;96121.00;;;;8384355;28;20295;-79
2022/06/23 12:37:17;;;;;;;2.67;2.30;;;;;40.40;96116.00;;;;8374319;28;20228;-77
2022/06/23 12:41:25;;;;;;;3.25;2.35;;;;;40.70;96116.00;;;;8381026;28;20199;-77
2022/06/23 12:45:46;;;;;;;4.30;2.50;;;;;38.70;96114.00;;;;8376432;28;20199;-78
2022/06/23 12:50:23;;;;;;;3.30;2.60;;;;;38.40;96111.00;;;;8379697;28;20265;-77
2022/06/23 12:55:18;;;;;;;3.42;2.30;;;;;38.20;96102.00;;;;8392995;28;20219;-76
2022/06/23 12:59:28;;;;;;;5.00;2.10;;;;;37.90;96094.00;;;;8397422;28;20625;-76
2022/06/23 13:03:42;;;;;;;4.70;2.50;;;;;37.40;96089.00;;;;8381108;28;20228;-77
2022/06/23 13:07:50;;;;;;;4.28;2.58;;;;;37.20;96080.00;;;;8375724;28;20192;-76
2022/06/23 13:12:05;;;;;;;6.07;2.60;;;;;37.40;96079.00;;;;8380466;28;20250;-76
2022/06/23 13:16:14;;;;;;;7.22;2.60;;;;;38.10;96072.00;;;;8374550;28;20653;-79
2022/06/23 13:20:26;;;;;;;4.47;2.40;;;;;39.00;96070.00;;;;8378724;28;20315;-76
2022/06/23 13:24:35;;;;;;;4.68;2.83;;;;;39.20;96060.00;;;;8375472;28;20200;-78
2022/06/23 13:28:42;;;;;;;4.35;2.28;;;;;39.40;96062.00;;;;8378233;28;20206;-77
2022/06/23 13:32:55;;;;;;;4.10;2.13;;;;;39.90;96053.00;;;;8378141;28;20288;-78
2022/06/23 13:37:03;;;;;;;4.68;2.58;;;;;39.70;96057.00;;;;8382250;28;20200;-76
2022/06/23 13:41:15;;;;;;;7.53;2.53;;;;;39.10;96048.00;;;;8383624;28;20206;-78
2022/06/23 13:45:31;;;;;;;8.73;3.15;;;;;38.70;96044.00;;;;8377706;28;20224;-75
2022/06/23 13:49:41;;;;;;;2.28;1.90;;;;;38.90;96032.00;;;;8378863;28;20192;-76
2022/06/23 13:53:53;;;;;;;3.85;1.85;;;;;39.10;96038.00;;;;8380865;28;20672;-75
2022/06/23 13:58:03;;;;;;;4.50;2.00;;;;;39.30;96033.00;;;;8374861;28;20215;-77
2022/06/23 14:02:15;;;;;;;6.80;2.40;;;;;39.40;96036.00;;;;8379915;28;20661;-76
2022/06/23 14:06:22;;;;;;;3.05;1.95;;;;;39.60;96025.00;;;;8377657;28;20196;-76
2022/06/23 14:10:37;;;;;;;4.47;2.55;;;;;39.70;96021.00;;;;8379423;28;20231;-76
2022/06/23 14:14:52;;;;;;;3.88;2.33;;;;;40.00;96005.00;;;;8382864;28;20196;-75
2022/06/23 14:18:59;;;;;;;2.17;1.88;;;;;39.90;96008.00;;;;8383531;28;20235;-76
2022/06/23 14:23:07;;;;;;;2.78;1.83;;;;;39.90;96005.00;;;;8385785;28;20192;-74
2022/06/23 14:27:18;;;;;;;5.05;2.10;;;;;40.00;95994.00;;;;8366446;28;20285;-74
2022/06/23 14:31:24;;;;;;;4.47;2.05;;;;;40.40;95990.00;;;;8388698;28;20222;-75
2022/06/23 14:35:37;;;;;;;4.22;2.03;;;;;40.40;95981.00;;;;8384957;28;20239;-75
2022/06/23 14:39:44;;;;;;;3.42;1.90;;;;;40.20;95990.00;;;;8384567;28;20232;-76
2022/06/23 14:44:10;;;;;;;6.00;2.28;;;;;40.10;95992.00;;;;8390677;28;20188;-75
2022/06/23 14:48:34;;;;;;;5.38;2.08;;;;;40.00;95984.00;;;;8381576;28;20198;-75
2022/06/23 14:52:46;;;;;;;5.82;2.50;;;;;40.10;95971.00;;;;8386321;28;20291;-75
2022/06/23 14:56:55;;;;;;;4.20;2.13;;;;;40.50;95975.00;;;;8385377;28;20560;-75
2022/06/23 15:01:05;;;;;;;5.43;2.40;;;;;40.30;95978.00;;;;8386381;28;20231;-74
2022/06/23 15:05:15;;;;;;;5.28;2.08;;;;;38.80;95970.00;;;;8388878;28;20231;-75
2022/06/23 15:09:30;;;;;;;5.55;2.03;;;;;38.00;95959.00;;;;8381009;28;20945;-74
2022/06/23 15:13:40;;;;;;;5.25;2.55;;;;;37.50;95961.00;;;;8374056;28;20661;-76
2022/06/23 15:17:55;;;;;;;2.63;1.85;;;;;37.80;95954.00;;;;8386167;28;20207;-74
2022/06/23 15:26:35;;;;;;;3.05;1.80;;;;;38.30;95940.00;;;;8302977;28;20205;-75
2022/06/23 15:30:47;;;;;;;4.40;2.30;;;;;38.30;95944.00;;;;8383891;28;20220;-75
2022/06/23 15:34:56;;;;;;;5.55;2.00;;;;;38.00;95935.00;;;;8386301;28;20586;-78
2022/06/23 15:39:04;;;;;;;3.58;1.92;;;;;37.80;95932.00;;;;8388829;28;20224;-82
2022/06/23 15:43:16;;;;;;;2.80;1.80;;;;;37.70;95929.00;;;;8375904;28;20560;-77
2022/06/23 15:47:29;;;;;;;4.95;2.05;;;;;37.40;95916.00;;;;8383714;28;20621;-77
2022/06/23 15:51:40;;;;;;;8.00;2.53;;;;;37.40;95923.00;;;;8382466;28;20671;-79
2022/06/23 15:55:48;;;;;;;2.97;2.05;;;;;37.60;95912.00;;;;8379105;28;20255;-75
2022/06/23 15:59:56;;;;;;;7.15;2.38;;;;;37.70;95911.00;;;;8383847;28;20320;-82
2022/06/23 16:04:14;;;;;;;6.75;2.47;;;;;37.40;95906.00;;;;8382275;28;20228;-80
2022/06/23 16:08:20;;;;;;;4.07;2.05;;;;;37.40;95894.00;;;;8379446;28;20812;-77
2022/06/23 16:12:33;;;;;;;4.95;1.80;;;;;37.70;95896.00;;;;8386786;28;20288;-79
2022/06/23 16:16:43;;;;;;;5.13;1.80;;;;;37.80;95892.00;;;;8381000;28;20779;-80
2022/06/23 16:20:56;;;;;;;4.82;2.20;;;;;37.40;95886.00;;;;8387782;28;20236;-75
2022/06/23 16:25:06;;;;;;;9.10;2.10;;;;;37.00;95882.00;;;;8382390;28;20224;-74
2022/06/23 16:29:12;;;;;;;2.58;2.00;;;;;36.70;95890.00;;;;8382387;28;20196;-73
2022/06/23 16:33:24;;;;;;;4.93;1.90;;;;;36.40;95895.00;;;;8381744;28;20743;-73
2022/06/23 16:37:33;;;;;;;6.10;2.30;;;;;36.10;95891.00;;;;8379841;28;20287;-73
2022/06/23 16:41:57;;;;;;;4.15;1.88;;;;;36.10;95879.00;;;;8378586;28;20316;-75
2022/06/23 16:46:10;;;;;;;2.20;2.00;;;;;36.40;95883.00;;;;8383961;28;20276;-73
2022/06/23 16:50:23;;;;;;;1.95;1.80;;;;;36.50;95866.00;;;;8384977;28;20204;-72
2022/06/23 16:54:35;;;;;;;2.83;1.77;;;;;36.90;95869.00;;;;8359043;28;20193;-74
2022/06/23 16:58:57;;;;;;;3.47;1.50;;;;;37.10;95867.00;;;;8381874;28;20875;-73
2022/06/23 17:03:11;;;;;;;2.42;1.55;;;;;37.40;95872.00;;;;8385832;28;20230;-74
2022/06/23 17:07:20;;;;;;;3.58;1.50;;;;;37.50;95865.00;;;;8387503;28;20814;-73
2022/06/23 17:11:31;;;;;;;5.47;1.65;;;;;37.30;95875.00;;;;8388228;28;20323;-73
2022/06/23 17:15:43;;;;;;;4.30;1.70;;;;;37.20;95878.00;;;;8374390;28;20262;-75
2022/06/23 17:19:50;;;;;;;2.92;1.63;;;;;37.20;95873.00;;;;8383403;28;20224;-73
2022/06/23 17:23:56;;;;;;;2.88;1.70;;;;;37.00;95864.00;;;;8384487;28;20267;-74
2022/06/23 17:28:09;;;;;;;5.18;1.52;;;;;37.00;95869.00;;;;8386164;28;20275;-73
2022/06/23 17:32:18;;;;;;;4.78;1.90;;;;;37.10;95873.00;;;;8385553;28;20281;-73
2022/06/23 17:36:30;;;;;;;1.90;1.35;;;;;37.30;95868.00;;;;8387395;28;20626;-73
2022/06/23 17:45:05;;;;;;;5.82;1.80;;;;;37.60;95859.00;;;;8381064;28;20196;-73
2022/06/23 17:49:18;;;;;;;3.55;1.70;;;;;37.90;95861.00;;;;8371502;28;20208;-72
2022/06/23 17:53:24;;;;;;;3.35;1.67;;;;;37.90;95860.00;;;;8379154;28;20621;-74
2022/06/23 17:57:33;;;;;;;9.85;2.28;;;;;37.30;95856.00;;;;8378460;28;20288;-74
2022/06/23 18:01:47;;;;;;;4.20;1.80;;;;;36.30;95860.00;;;;8385368;28;20251;-74
2022/06/23 18:05:59;;;;;;;4.35;1.60;;;;;35.20;95858.00;;;;8349222;28;20299;-75
2022/06/23 18:10:09;;;;;;;5.10;1.90;;;;;34.10;95853.00;;;;8358852;28;20312;-75
2022/06/23 18:14:19;;;;;;;3.13;1.60;;;;;33.40;95848.00;;;;8354674;28;20276;-75
2022/06/23 18:18:30;;;;;;;3.28;2.38;;;;;32.80;95853.00;;;;8355039;28;20292;-74
2022/06/23 18:22:44;;;;;;;10.15;5.07;;;;;32.20;95852.00;;;;8346132;28;20343;-75
2022/06/23 18:26:54;;;;;;;4.68;2.95;;;;;31.70;95859.00;;;;8343826;28;20208;-74
2022/06/23 18:31:04;;;;;;;14.73;6.30;;;;;31.30;95845.00;;;;8348112;28;20199;-74
2022/06/23 18:35:13;;;;;;;6.38;3.45;;;;;30.90;95843.00;;;;8351489;28;20690;-73
2022/06/23 18:39:28;;;;;;;10.90;3.00;;;;;30.50;95839.00;;;;8355743;28;20270;-73
2022/06/23 18:43:38;;;;;;;5.60;1.95;;;;;30.10;95835.00;;;;8351112;28;20193;-74
2022/06/23 18:47:44;;;;;;;5.25;2.00;;;;;29.80;95834.00;;;;8352543;28;20283;-74
2022/06/23 18:51:47;;;;;;;5.38;1.95;;;;;29.50;95830.00;;;;8350930;28;20855;-75
2022/06/23 18:56:00;;;;;;;6.88;2.05;;;;;29.00;95819.00;;;;8348811;28;20193;-75
2022/06/23 19:00:14;;;;;;;6.53;2.33;;;;;28.60;95822.00;;;;8353284;28;20224;-73
2022/06/23 19:04:29;;;;;;;3.00;1.77;;;;;28.20;95821.00;;;;8366827;28;20267;-74
2022/06/23 19:08:33;;;;;;;4.45;2.20;;;;;27.90;95823.00;;;;8381610;28;20816;-73
2022/06/23 19:12:46;;;;;;;3.08;2.10;;;;;27.50;95828.00;;;;8384930;28;20207;-73
2022/06/23 19:16:54;;;;;;;9.43;2.20;;;;;27.10;95835.00;;;;8386839;28;20288;-73
2022/06/23 19:21:06;;;;;;;3.95;2.20;;;;;26.80;95832.00;;;;8378531;28;20244;-73
2022/06/23 19:25:25;;;;;;;3.13;2.25;;;;;26.50;95835.00;;;;8387229;28;20271;-73
2022/06/23 19:29:44;;;;;;;3.95;2.55;;;;;26.20;95841.00;;;;8386257;28;20235;-72
2022/06/23 19:33:52;;;;;;;3.60;2.75;;;;;26.00;95850.00;;;;8397227;28;20722;-71
2022/06/23 19:38:08;;;;;;;2.63;2.42;;;;;25.70;95844.00;;;;8388950;28;20291;-71
2022/06/23 19:42:18;;;;;;;6.75;3.00;;;;;25.40;95842.00;;;;8381628;28;20227;-75
2022/06/23 19:46:24;;;;;;;6.10;3.00;;;;;25.00;95846.00;;;;8387425;28;20625;-73
2022/06/23 19:50:32;;;;;;;6.05;2.92;;;;;24.60;95841.00;;;;8382547;28;20285;-72
2022/06/23 19:54:42;;;;;;;7.03;3.17;;;;;24.40;95843.00;;;;8387830;28;20195;-72
2022/06/23 19:58:56;;;;;;;6.65;3.40;;;;;24.20;95838.00;;;;8386309;28;20323;-73
2022/06/23 20:03:11;;;;;;;4.78;3.60;;;;;24.10;95842.00;;;;8388258;28;20231;-73
2022/06/23 20:07:20;;;;;;;6.88;3.58;;;;;24.00;95844.00;;;;8384364;28;20192;-73
2022/06/23 20:11:32;;;;;;;8.35;4.20;;;;;24.00;95839.00;;;;8388798;28;20576;-72
2022/06/23 20:15:37;;;;;;;7.22;4.35;;;;;24.00;95836.00;;;;8388638;28;20199;-75
2022/06/23 20:19:53;;;;;;;6.90;3.75;;;;;23.90;95836.00;;;;8387130;28;20666;-72
2022/06/23 20:24:09;;;;;;;7.43;4.30;;;;;23.80;95832.00;;;;8383498;28;20298;-73
2022/06/23 20:28:22;;;;;;;4.40;4.00;;;;;23.60;95833.00;;;;8384666;28;20253;-74
2022/06/23 20:32:39;;;;;;;6.15;4.80;;;;;23.50;95836.00;;;;8380668;28;20188;-72
2022/06/23 20:36:56;;;;;;;5.47;4.97;;;;;23.30;95820.00;;;;8389822;28;20192;-77
2022/06/23 20:41:08;;;;;;;6.20;4.90;;;;;23.20;95811.00;;;;8389317;28;20236;-72
2022/06/23 20:45:23;;;;;;;8.02;5.82;;;;;23.20;95818.00;;;;8392504;28;20228;-71
2022/06/23 20:50:02;;;;;;;10.32;5.28;;;;;23.20;95819.00;;;;8383333;28;20195;-73
2022/06/23 20:54:13;;;;;;;7.20;5.38;;;;;23.20;95819.00;;;;8375335;28;20286;-74
2022/06/23 20:58:27;;;;;;;8.77;5.45;;;;;23.20;95820.00;;;;8389837;28;20386;-75
2022/06/23 21:02:36;;;;;;;8.50;5.15;;;;;23.20;95812.00;;;;8376354;28;20240;-75
2022/06/23 21:06:58;;;;;;;7.82;5.80;;;;;23.00;95803.00;;;;8387663;28;20718;-74